x

Port Orford - 15 Nm West Of Port Orford, Or (46015) Wave Buoy

7:50am - Fri 27th Mar 2015 All times are PDT. -7 hours from GMT.

  • Sig Wave height 7.5ft
  • Swell Direction
  • Peak Period 12s
  • Average Period 10s
  • Wind
    7mph, 11mph gusts
  • Sea Temp 54°f
  • Air Temp 53°f
  • Sea Pressure 1020.5mb
  • Port Orford - 15 Nm West Of Port Orford, Or
  • Port Orford - 15 Nm West Of Port Orford, Or

More Historic Weather Station data

Upgrade to MSW Pro to gain access to the past 30 days of data for over 8000 Wavebouys and Weather Stations around the globe.

Join Pro

Comparision Forecast

View Surf forecast
   
Fri 03/27 7:50am 7.5ft 12s 10s 7 11 mph 1020.5mb 54f 53f
6:50am 7ft 12s 9s 4 7 mph 1020mb 54f 53f
5:50am 8ft 11s 9s 4 9 mph 1019.7mb 54f 53f
4:50am 7.5ft 11s 9s 9 11 mph 1019.7mb 54f 53f
3:50am 7ft 12s 9s 2 4 mph 1019.7mb 54f 52f
2:50am 7ft 11s 9s 4 7 mph 1020.2mb 54f 52f
1:50am 7.5ft 12s 9s 4 9 mph 1020.2mb 54f 52f
12:50am 7ft 11s 8s 4 7 mph 1020.7mb 54f 51f
Thu 03/26 11:50pm 8ft 11s 8s 7 9 mph 1021mb 54f 51f
10:50pm 7.5ft 11s 8s 11 13 mph 1020.9mb 54f 51f
9:50pm 8ft 11s 8s 13 16 mph 1020.7mb 54f 51f
8:50pm 8ft 11s 8s 16
mph
1020.4mb 54f 51f
7:50pm 7ft 11s 7s 16 18 mph 1020.4mb 54f 51f
6:50pm 8ft 11s 8s 16 20 mph 1020.4mb 54f 51f
5:50pm 8ft 11s 8s 16 20 mph 1020.6mb 54f 51f
4:50pm 6.5ft 11s 7s 16 18 mph 1021mb 55f 52f
3:50pm 6ft 11s 7s 18 20 mph 1021.6mb 54f 52f
2:50pm 6ft 11s 7s 16 20 mph 1022.4mb 55f 52f
1:50pm 6ft 11s 7s 16 18 mph 1023.4mb 55f 51f
12:50pm 6ft 11s 7s 16 20 mph 1023.9mb 54f 51f
11:50am 6.5ft 11s 8s 16 20 mph 1024mb 54f 51f
10:50am 6.5ft 11s 7s 16 18 mph 1024.3mb 54f 51f
9:50am 7ft 11s 8s 16 18 mph 1024.1mb 54f 51f
8:50am 7.5ft 11s 8s 16 18 mph 1023.9mb 54f 50f
7:50am 8ft 10s 8s 13 16 mph 1023.9mb 54f 50f
6:50am 7ft 11s 8s 16 18 mph 1023.6mb 54f 50f
5:50am 7.5ft 11s 8s 13 16 mph 1023.8mb 54f 50f
4:50am 7ft 11s 8s 11 13 mph 1023.9mb 54f 50f
3:50am 7ft 11s 8s 11 13 mph 1024.2mb 54f 50f
2:50am 7ft 10s 8s 11 13 mph 1024.7mb 54f 51f
1:50am 7ft 11s 8s 11 13 mph 1025mb 55f 51f
12:50am 6ft 11s 8s 11 13 mph 1025.3mb 55f 51f
Wed 03/25 11:50pm 7.5ft 11s 9s 9 11 mph 1026.2mb 55f 51f
10:50pm 5.5ft 11s 8s 9 11 mph 1026.4mb 55f 51f
9:50pm 6.5ft 11s 9s 7 11 mph 1026.9mb 55f 51f
8:50pm 6ft 11s 8s 4 9 mph 1027.1mb 55f 52f
7:50pm 6ft 12s 8s 4 7 mph 1027mb 55f 52f
6:50pm 5.5ft 11s 8s 4 7 mph 1027mb 55f 53f
5:50pm 6ft 11s 8s 9 11 mph 1026.7mb 55f 53f
4:50pm 6.5ft 11s 8s 9 11 mph 1026.8mb 55f 55f
3:50pm 6ft 11s 8s 9
mph
1026.9mb 55f 55f
2:50pm 6ft 11s 8s 9 11 mph 1027.2mb 55f 55f
1:50pm 6ft 10s 8s 7 9 mph 1027.9mb 55f 55f
12:50pm 6ft 10s 8s 7 9 mph 1028mb 55f 55f
11:50am 6.5ft 10s 8s 7 9 mph 1027.9mb 54f 55f
10:50am 6.5ft 11s 8s 7 9 mph 1027.9mb 54f 55f
9:50am 5.5ft 10s 7s 9 11 mph 1027.5mb 54f 55f
8:50am 7ft 11s 8s 11 13 mph 1027mb 54f 55f
7:50am 6.5ft 11s 7s 11 13 mph 1026.6mb 54f 54f
6:50am 6ft 11s 7s 11 13 mph 1026.2mb 54f 54f
5:50am 7ft 11s 7s 13 16 mph 1025.8mb 54f 54f
4:50am 7ft 11s 7s 16 18 mph 1025.8mb 54f 54f
3:50am 6.5ft 12s 7s 16 20 mph 1025.7mb 54f 54f
2:50am 7ft 12s 7s 18 20 mph 1025.8mb 54f 54f
1:50am 7ft 11s 7s 18 20 mph 1025.8mb 54f 54f
12:50am 7ft 12s 7s 18 22 mph 1025.9mb 54f 54f
Tue 03/24 11:50pm 7.5ft 11s 7s 20 25 mph 1025.9mb 54f 54f
10:50pm 7.5ft 11s 7s 18 22 mph 1025.8mb 54f 54f
9:50pm 8.5ft 11s 7s 16 20 mph 1025.9mb 54f 54f
8:50pm 9.5ft 11s 8s 18 20 mph 1025.8mb 54f 54f
7:50pm 9ft 11s 8s 18 20 mph 1025.1mb 54f 54f
6:50pm 11ft 11s 8s 18 20 mph 1024.9mb 54f 53f
5:50pm 10ft 11s 8s 18 22 mph 1024.9mb 54f 53f
4:50pm 10ft 11s 8s 20 25 mph 1025mb 54f 53f
3:50pm 11ft 11s 8s 18 20 mph 1025mb 54f 54f
2:50pm 10ft 11s 8s 18 22 mph 1025mb 54f 53f
1:50pm 10.5ft 11s 8s 16 20 mph 1025.1mb 54f 53f
12:50pm 9ft 13s 8s 16 18 mph 1025.3mb 54f 53f
11:50am 9.5ft 10s 8s 16 18 mph 1024.9mb 54f 52f
10:50am 9.5ft 13s 8s 11 13 mph 1025.4mb 54f 52f
9:50am 9ft 12s 8s 9
mph
1025mb 54f 51f
8:50am 9.5ft 12s 8s 4 7 mph 1024.7mb 54f 51f
7:50am 10.5ft 11s 8s 4 9 mph 1023.8mb 54f 51f
6:50am 10.5ft 11s 8s  -  4 mph 1023.2mb 54f 51f
5:50am 12.5ft 11s 8s 2 4 mph 1022.7mb 54f 51f
4:50am 12ft 11s 8s 7 9 mph 1022.1mb 54f 51f
3:50am 12ft 10s 8s 11 13 mph 1021.8mb 54f 51f
2:50am 13ft 10s 8s 13 18 mph 1021.6mb 54f 51f
1:50am 12.5ft 10s 8s 13 16 mph 1020.7mb 54f 53f
12:50am 13ft 12s 7s 18 22 mph 1020mb 54f 53f
Mon 03/23 11:50pm 13.5ft 10s 7s 22 29 mph 1018.5mb 54f 54f
10:50pm  -   -   -  25 31 mph 1017.3mb 54f 56f
9:50pm  -   -   -  27 34 mph 1016.5mb 54f 55f
8:50pm 14ft 8s 7s 27 34 mph 1016mb 54f 55f
7:50pm 13.5ft 7s 7s 27 34 mph 1015.6mb 54f 55f
6:50pm 14.5ft 7s 7s 36 43 mph 1015.2mb 54f 52f
5:50pm 12.5ft 13s 6s 38 45 mph 1015.2mb 54f 52f
4:50pm 12ft 12s 7s 34 40 mph 1016.5mb 54f 53f